Time;durP1;ratioP1;P1;durP2;ratioP2;P2;SDS_P1;SDS_P2;PMS_P1;PMS_P2;Temp;Humidity;BMP_temperature;BMP_pressure;BME280_temperature;BME280_humidity;BME280_pressure;Samples;Min_cycle;Max_cycle;Signal;HPM_P1;HPM_P2
2022/05/19 00:01:37;;;;;;;6.03;2.58;;;;;;;16.68;69.41;99171.28;5091578;28;20039;-65
2022/05/19 00:04:03;;;;;;;5.18;2.58;;;;;;;16.77;69.13;99169.94;5092238;28;20531;-65
2022/05/19 00:06:28;;;;;;;5.88;1.90;;;;;;;16.72;69.45;99174.41;5083454;28;20081;-65
2022/05/19 00:08:53;;;;;;;2.92;1.98;;;;;;;16.67;69.05;99177.00;5090052;28;20028;-65
2022/05/19 00:11:25;;;;;;;4.68;2.33;;;;;;;16.69;68.63;99172.13;5091367;28;20016;-65
2022/05/19 00:13:51;;;;;;;3.15;2.00;;;;;;;16.59;69.63;99172.72;5088087;28;20028;-65
2022/05/19 00:16:16;;;;;;;6.65;2.20;;;;;;;16.48;69.50;99165.28;5088924;28;20031;-65
2022/05/19 00:18:41;;;;;;;6.20;2.38;;;;;;;16.37;69.40;99147.81;5087670;28;20048;-65
2022/05/19 00:21:07;;;;;;;3.35;2.65;;;;;;;16.46;69.73;99167.44;5091255;28;20392;-65
2022/05/19 00:23:32;;;;;;;4.22;2.30;;;;;;;16.25;69.81;99139.59;5090009;28;20070;-65
2022/05/19 00:25:58;;;;;;;5.85;2.30;;;;;;;16.34;69.67;99160.03;5063024;28;20028;-65
2022/05/19 00:28:23;;;;;;;3.35;2.60;;;;;;;16.26;70.43;99159.53;5085792;28;20120;-65
2022/05/19 00:30:48;;;;;;;2.95;2.20;;;;;;;16.16;70.99;99149.16;5086491;28;20131;-65
2022/05/19 00:33:13;;;;;;;3.30;2.28;;;;;;;15.89;70.89;99127.69;5091519;28;20019;-65
2022/05/19 00:35:40;;;;;;;3.00;2.10;;;;;;;15.97;71.24;99142.91;5089402;28;20055;-65
2022/05/19 00:38:06;;;;;;;5.15;2.35;;;;;;;15.99;71.45;99147.06;5089746;28;20019;-65
2022/05/19 00:40:32;;;;;;;4.70;2.38;;;;;;;15.94;71.54;99141.47;5084966;28;20039;-66
2022/05/19 00:42:57;;;;;;;4.65;2.67;;;;;;;15.82;71.87;99118.75;5071018;28;20035;-65
2022/05/19 00:45:26;;;;;;;6.72;2.72;;;;;;;15.92;70.65;99145.50;5084080;28;20024;-65
2022/05/19 00:48:24;;;;;;;4.18;2.40;;;;;;;15.97;70.25;99135.53;5081400;28;20081;-65
2022/05/19 00:50:59;;;;;;;4.85;2.67;;;;;;;15.97;70.58;99135.53;5084382;28;20079;-65
2022/05/19 00:53:45;;;;;;;8.23;2.38;;;;;;;15.96;70.59;99139.34;5090560;28;20019;-65
2022/05/19 00:56:15;;;;;;;5.07;2.70;;;;;;;15.93;71.27;99136.25;5089298;28;20319;-65
2022/05/19 00:58:46;;;;;;;4.68;2.80;;;;;;;15.84;70.81;99105.72;5082568;28;20020;-65
2022/05/19 01:01:12;;;;;;;5.53;2.40;;;;;;;15.92;67.36;99104.56;5089164;28;20030;-65
2022/05/19 01:03:49;;;;;;;4.72;2.67;;;;;;;16.13;68.73;99130.50;5090739;28;20046;-65
2022/05/19 01:06:18;;;;;;;5.20;2.20;;;;;;;16.29;67.30;99132.59;5083200;28;20040;-65
2022/05/19 01:08:48;;;;;;;3.60;2.17;;;;;;;16.54;65.02;99117.94;5087417;28;20024;-65
2022/05/19 01:11:15;;;;;;;4.28;2.03;;;;;;;16.65;64.39;99119.84;5087262;28;20345;-65
2022/05/19 01:13:42;;;;;;;5.15;1.95;;;;;;;16.62;64.65;99123.88;5082843;28;20020;-65
2022/05/19 01:16:09;;;;;;;3.05;2.00;;;;;;;16.50;64.82;99124.94;5089005;28;20568;-65
2022/05/19 01:18:36;;;;;;;2.90;2.10;;;;;;;16.50;64.31;99122.19;5090573;28;20058;-65
2022/05/19 01:21:03;;;;;;;4.45;2.50;;;;;;;16.41;65.64;99121.72;5088834;28;20131;-65
2022/05/19 01:24:01;;;;;;;6.78;2.33;;;;;;;16.22;66.81;99123.69;5089267;28;20420;-65
2022/05/19 01:26:46;;;;;;;4.57;2.40;;;;;;;15.98;68.65;99118.13;5082590;28;20452;-65
2022/05/19 01:29:13;;;;;;;5.25;2.20;;;;;;;15.86;69.43;99125.41;5081621;28;20051;-65
2022/05/19 01:31:49;;;;;;;4.55;2.20;;;;;;;15.73;70.07;99114.69;5089799;28;20107;-65
2022/05/19 01:34:17;;;;;;;2.88;1.92;;;;;;;15.79;68.96;99116.47;5089689;28;20027;-65
2022/05/19 01:36:43;;;;;;;4.32;2.00;;;;;;;15.69;69.16;99103.41;5083939;28;20028;-65
2022/05/19 01:39:11;;;;;;;2.40;1.90;;;;;;;15.60;68.81;99109.34;5090034;28;20035;-65
2022/05/19 01:41:44;;;;;;;3.40;1.95;;;;;;;15.52;68.59;99096.88;5086151;28;20073;-65
2022/05/19 01:44:26;;;;;;;4.28;2.00;;;;;;;15.43;68.59;99093.63;5086741;28;20048;-65
2022/05/19 01:47:17;;;;;;;3.17;2.20;;;;;;;15.56;67.71;99108.97;5088428;28;20034;-65
2022/05/19 01:49:57;;;;;;;6.47;2.05;;;;;;;15.33;68.57;99076.97;5081547;28;20067;-65
2022/05/19 01:52:48;;;;;;;3.35;2.00;;;;;;;15.40;68.45;99099.50;5089178;28;20039;-65
2022/05/19 01:55:27;;;;;;;5.68;2.30;;;;;;;15.43;68.56;99098.22;5074136;28;20050;-65
2022/05/19 01:58:10;;;;;;;3.10;2.15;;;;;;;15.46;68.54;99114.97;5084784;28;20036;-65
2022/05/19 02:00:35;;;;;;;4.07;2.00;;;;;;;15.50;67.03;99107.16;5085212;28;20543;-65
2022/05/19 02:03:35;;;;;;;5.57;1.80;;;;;;;15.54;67.31;99106.47;5083244;28;20028;-65
2022/05/19 02:06:14;;;;;;;7.07;2.08;;;;;;;15.52;67.31;99105.03;5085210;28;20035;-65
2022/05/19 02:08:54;;;;;;;7.45;2.08;;;;;;;15.39;68.57;99108.75;5083228;28;20021;-65
2022/05/19 02:11:50;;;;;;;4.18;2.03;;;;;;;15.27;68.79;99113.28;5089018;28;20777;-65
2022/05/19 02:14:20;;;;;;;3.78;2.00;;;;;;;15.21;68.97;99100.56;5086122;28;20048;-65
2022/05/19 02:16:47;;;;;;;4.60;2.15;;;;;;;15.22;68.30;99105.81;5078903;28;20020;-65
2022/05/19 02:19:17;;;;;;;3.22;1.67;;;;;;;15.19;67.98;99097.22;5089808;28;20050;-65
2022/05/19 02:21:44;;;;;;;2.78;1.85;;;;;;;15.19;68.01;99108.13;5090183;28;20020;-65
2022/05/19 02:24:12;;;;;;;2.97;1.88;;;;;;;15.27;67.44;99091.47;5088621;28;20059;-65
2022/05/19 02:26:39;;;;;;;4.13;2.25;;;;;;;15.31;67.12;99098.16;5089633;28;20457;-65
2022/05/19 02:29:09;;;;;;;4.05;2.03;;;;;;;15.29;66.86;99103.00;5089932;28;20022;-65
2022/05/19 02:31:35;;;;;;;4.68;2.10;;;;;;;15.24;66.99;99100.13;5089805;28;20020;-65
2022/05/19 02:34:00;;;;;;;3.53;2.08;;;;;;;15.17;67.71;99097.47;5087680;28;20089;-65
2022/05/19 02:36:25;;;;;;;5.57;2.40;;;;;;;15.19;67.81;99094.50;5084734;28;20032;-65
2022/05/19 02:38:51;;;;;;;5.20;2.20;;;;;;;15.13;67.81;99088.91;5084857;28;20032;-65
2022/05/19 02:41:16;;;;;;;5.90;1.92;;;;;;;15.15;67.46;99093.31;5090407;28;20078;-65
2022/05/19 02:43:41;;;;;;;3.83;2.05;;;;;;;15.18;66.76;99073.78;5088960;28;20024;-65
2022/05/19 02:46:07;;;;;;;4.50;2.42;;;;;;;15.27;67.09;99078.72;5091798;28;20035;-65
2022/05/19 02:48:33;;;;;;;5.13;2.40;;;;;;;15.41;68.22;99084.81;5093616;28;20099;-65
2022/05/19 02:51:00;;;;;;;5.95;2.20;;;;;;;15.26;68.02;99087.09;5083616;28;20035;-65
2022/05/19 02:53:26;;;;;;;3.55;2.28;;;;;;;15.04;68.44;99090.28;5080704;28;20051;-64
2022/05/19 02:55:51;;;;;;;5.97;2.45;;;;;;;14.91;69.53;99090.41;5093086;28;20036;-65
2022/05/19 02:58:17;;;;;;;4.07;2.60;;;;;;;14.86;69.96;99093.78;5091637;28;20033;-65
2022/05/19 03:00:47;;;;;;;2.90;2.10;;;;;;;14.91;69.74;99104.03;5087000;28;20031;-65
2022/05/19 03:03:13;;;;;;;4.57;2.10;;;;;;;14.91;69.18;99095.84;5092822;28;20035;-65
2022/05/19 03:05:39;;;;;;;2.65;1.95;;;;;;;14.88;69.85;99101.72;5092935;28;20103;-65
2022/05/19 03:08:07;;;;;;;4.25;2.05;;;;;;;14.89;69.63;99092.50;5089367;28;20112;-65
2022/05/19 03:10:33;;;;;;;3.20;2.33;;;;;;;14.88;70.29;99101.72;5085768;28;20034;-66
2022/05/19 03:12:59;;;;;;;4.32;2.30;;;;;;;14.83;70.26;99107.03;5084416;28;20147;-66
2022/05/19 03:15:25;;;;;;;4.28;2.47;;;;;;;14.54;72.19;99112.09;5082870;28;20118;-66
2022/05/19 03:17:50;;;;;;;4.80;2.03;;;;;;;14.25;74.87;99119.81;5087006;28;20035;-66
2022/05/19 03:20:16;;;;;;;4.63;2.40;;;;;;;14.00;75.53;99117.00;5089868;28;20035;-66
2022/05/19 03:22:42;;;;;;;4.90;2.22;;;;;;;13.83;75.93;99104.97;5089075;28;20028;-66
2022/05/19 03:25:08;;;;;;;6.03;2.20;;;;;;;13.94;74.53;99126.06;5085038;28;20032;-66
2022/05/19 03:27:37;;;;;;;5.88;1.98;;;;;;;14.11;73.34;99120.94;5085910;28;20024;-66
2022/05/19 03:30:05;;;;;;;4.47;2.10;;;;;;;14.18;72.43;99118.19;5088914;28;20025;-66
2022/05/19 03:32:31;;;;;;;3.88;2.40;;;;;;;14.22;71.92;99095.72;5089164;28;20465;-66
2022/05/19 03:34:56;;;;;;;2.17;1.92;;;;;;;14.35;71.49;99113.84;5085267;28;20105;-67
2022/05/19 03:37:21;;;;;;;7.28;2.35;;;;;;;14.37;71.76;99110.94;5077260;28;20077;-67
2022/05/19 03:39:47;;;;;;;5.18;2.22;;;;;;;14.30;71.97;99110.13;5087744;28;20024;-66
2022/05/19 03:42:12;;;;;;;7.80;2.17;;;;;;;14.30;71.47;99100.06;5090635;28;20020;-66
2022/05/19 03:44:37;;;;;;;5.78;1.98;;;;;;;14.29;72.26;99108.47;5086753;28;20020;-66
2022/05/19 03:47:04;;;;;;;3.15;2.10;;;;;;;14.32;71.82;99110.75;5090838;28;20117;-66
2022/05/19 03:49:30;;;;;;;2.78;2.00;;;;;;;14.46;71.20;99101.41;5083417;28;20115;-66
2022/05/19 03:51:55;;;;;;;4.72;1.88;;;;;;;14.61;68.73;99099.25;5091707;28;20443;-67
2022/05/19 03:54:20;;;;;;;5.03;2.45;;;;;;;14.66;69.57;99104.84;5083962;28;20077;-67
2022/05/19 03:56:46;;;;;;;5.93;2.30;;;;;;;14.59;70.20;99093.19;5083809;28;20088;-64
2022/05/19 03:59:11;;;;;;;3.78;2.30;;;;;;;14.65;71.97;99113.25;5087064;28;20065;-66
2022/05/19 04:01:37;;;;;;;7.75;2.53;;;;;;;14.42;72.14;99083.88;5088042;28;20142;-69
2022/05/19 04:04:03;;;;;;;8.30;3.00;;;;;;;14.33;72.65;99088.78;5086938;28;20024;-72
2022/05/19 04:06:29;;;;;;;6.90;3.20;;;;;;;14.29;73.13;99108.47;5086861;28;20080;-70
2022/05/19 04:08:54;;;;;;;7.82;3.10;;;;;;;14.41;73.49;99118.44;5088736;28;20039;-70
2022/05/19 04:11:19;;;;;;;7.75;3.03;;;;;;;14.28;74.53;99109.50;5088444;28;20366;-67
2022/05/19 04:13:45;;;;;;;9.63;3.30;;;;;;;14.31;74.52;99119.97;5090421;28;20367;-73
2022/05/19 04:16:11;;;;;;;7.65;2.88;;;;;;;14.21;74.37;99099.50;5087577;28;20061;-75
2022/05/19 04:18:37;;;;;;;7.53;2.60;;;;;;;14.23;74.51;99102.84;5073038;28;20027;-67
2022/05/19 04:21:03;;;;;;;5.68;2.35;;;;;;;14.25;74.32;99094.44;5085592;28;20032;-67
2022/05/19 04:23:28;;;;;;;8.32;2.58;;;;;;;14.28;73.93;99090.47;5084662;28;20094;-69
2022/05/19 04:25:54;;;;;;;7.32;2.65;;;;;;;14.60;73.26;99115.81;5092351;28;20031;-71
2022/05/19 04:28:20;;;;;;;5.75;2.85;;;;;;;14.52;73.61;99095.09;5091103;28;20020;-70
2022/05/19 04:30:45;;;;;;;5.18;2.10;;;;;;;14.76;73.54;99128.88;5087943;28;20066;-67
2022/05/19 04:33:10;;;;;;;9.00;2.45;;;;;;;14.85;74.20;99119.34;5089900;28;20019;-71
2022/05/19 04:35:36;;;;;;;3.03;2.45;;;;;;;14.78;73.35;99104.16;5090222;28;20094;-67
2022/05/19 04:38:08;;;;;;;3.42;2.42;;;;;;;14.64;73.84;99108.84;5087131;28;20027;-70
2022/05/19 04:40:39;;;;;;;3.75;2.50;;;;;;;14.69;73.66;99103.56;5082881;28;20028;-69
2022/05/19 04:43:08;;;;;;;3.38;2.08;;;;;;;14.58;72.40;99077.06;5086273;28;20081;-72
2022/05/19 04:45:33;;;;;;;2.80;2.20;;;;;;;15.10;71.53;99113.88;5089583;28;20027;-72
2022/05/19 04:47:59;;;;;;;2.47;2.08;;;;;;;15.36;70.93;99117.41;5089807;28;20397;-70
2022/05/19 04:50:25;;;;;;;3.90;2.30;;;;;;;15.54;70.93;99125.56;5092997;28;20024;-69
2022/05/19 04:52:50;;;;;;;3.72;2.20;;;;;;;15.85;70.97;99126.50;5085516;28;20111;-70
2022/05/19 04:55:15;;;;;;;3.67;2.13;;;;;;;15.91;70.38;99109.19;5091396;28;20038;-69
2022/05/19 04:57:43;;;;;;;6.82;2.50;;;;;;;16.09;68.73;99118.41;5072471;28;20121;-67
2022/05/19 05:00:12;;;;;;;4.97;2.40;;;;;;;16.30;67.79;99128.81;5088699;28;20051;-66
2022/05/19 05:02:38;;;;;;;3.63;2.45;;;;;;;16.46;67.70;99126.47;5087960;28;20028;-66
2022/05/19 05:05:04;;;;;;;2.60;2.03;;;;;;;16.42;66.71;99135.13;5080730;28;20080;-66
2022/05/19 05:07:30;;;;;;;5.93;2.35;;;;;;;16.35;66.65;99136.31;5087157;28;20028;-66
2022/05/19 05:09:55;;;;;;;3.92;2.20;;;;;;;16.53;65.41;99121.72;5087875;28;20032;-72
2022/05/19 05:12:20;;;;;;;3.60;2.13;;;;;;;16.80;65.35;99135.84;5088107;28;20465;-65
2022/05/19 05:14:45;;;;;;;5.47;2.22;;;;;;;16.90;63.70;99133.34;5085668;28;20020;-65
2022/05/19 05:17:11;;;;;;;3.63;1.83;;;;;;;17.05;63.58;99114.56;5085389;28;20024;-66
2022/05/19 05:19:36;;;;;;;5.63;1.98;;;;;;;17.41;62.07;99131.78;5081259;28;20020;-66
2022/05/19 05:22:02;;;;;;;3.95;1.75;;;;;;;17.52;61.95;99121.88;5083496;28;20024;-65
2022/05/19 05:24:28;;;;;;;6.93;1.92;;;;;;;17.74;60.85;99146.72;5090177;28;20028;-66
2022/05/19 05:26:53;;;;;;;4.85;1.83;;;;;;;17.98;59.76;99142.03;5087804;28;20023;-66
2022/05/19 05:29:20;;;;;;;3.58;2.20;;;;;;;18.00;57.93;99123.47;5088332;28;20056;-67
2022/05/19 05:31:46;;;;;;;9.68;2.00;;;;;;;18.28;56.98;99130.81;5085902;28;20020;-64
2022/05/19 05:34:11;;;;;;;3.22;1.67;;;;;;;18.59;56.20;99134.94;5089705;28;20031;-65
2022/05/19 05:36:37;;;;;;;4.43;1.98;;;;;;;18.75;55.92;99136.06;5090192;28;20032;-64
2022/05/19 05:39:03;;;;;;;2.17;1.50;;;;;;;18.96;53.68;99120.78;5089917;28;20027;-64
2022/05/19 05:41:28;;;;;;;4.93;1.73;;;;;;;19.10;52.82;99124.03;5082798;28;20126;-62
2022/05/19 05:43:54;;;;;;;3.25;1.70;;;;;;;19.15;50.55;99106.78;5089600;28;20421;-63
2022/05/19 05:46:19;;;;;;;3.03;1.30;;;;;;;19.53;48.79;99141.66;5089798;28;20035;-62
2022/05/19 05:48:46;;;;;;;5.18;1.70;;;;;;;19.40;50.82;99153.81;5084862;28;20070;-63
2022/05/19 05:51:13;;;;;;;4.25;1.85;;;;;;;18.99;54.19;99147.72;5088659;28;20656;-63
2022/05/19 05:53:40;;;;;;;2.33;1.60;;;;;;;19.68;52.96;99143.81;5087096;28;20458;-67
2022/05/19 05:56:09;;;;;;;4.00;1.88;;;;;;;20.06;51.89;99140.13;5083098;28;20063;-65
2022/05/19 05:58:34;;;;;;;4.95;1.70;;;;;;;20.36;50.08;99122.34;5066978;28;20635;-63
2022/05/19 06:01:05;;;;;;;3.95;1.90;;;;;;;20.81;50.81;99134.88;5086791;28;20119;-63
2022/05/19 06:03:32;;;;;;;5.28;1.80;;;;;;;21.23;51.84;99131.34;5071385;28;20016;-69
2022/05/19 06:05:58;;;;;;;3.38;1.40;;;;;;;21.55;51.01;99136.78;5087874;28;20035;-68
2022/05/19 06:08:23;;;;;;;3.20;1.50;;;;;;;21.65;44.97;99144.28;5087847;28;20043;-67
2022/05/19 06:10:48;;;;;;;3.47;1.40;;;;;;;21.98;42.47;99136.69;5081585;28;20122;-71
2022/05/19 06:13:15;;;;;;;4.78;1.40;;;;;;;22.04;42.73;99147.47;5088615;28;20020;-70
2022/05/19 06:15:41;;;;;;;3.65;1.40;;;;;;;22.31;41.46;99150.03;5087584;28;20035;-72
2022/05/19 06:18:07;;;;;;;2.65;1.30;;;;;;;22.68;40.92;99139.91;5092396;28;20283;-67
2022/05/19 06:20:32;;;;;;;2.88;1.10;;;;;;;22.37;40.19;99131.59;5076879;28;20039;-72
2022/05/19 06:22:58;;;;;;;3.30;1.30;;;;;;;22.27;41.27;99113.13;5085931;28;20103;-65
2022/05/19 06:25:25;;;;;;;2.67;1.55;;;;;;;22.62;41.64;99141.84;5087173;28;20024;-69
2022/05/19 06:27:51;;;;;;;2.13;1.48;;;;;;;22.84;40.59;99129.72;5089229;28;20059;-68
2022/05/19 06:30:18;;;;;;;1.55;1.20;;;;;;;23.06;39.79;99137.75;5093078;28;20111;-68
2022/05/19 06:32:44;;;;;;;1.83;1.15;;;;;;;23.21;39.97;99134.13;5090553;28;20024;-67
2022/05/19 06:35:11;;;;;;;2.17;1.30;;;;;;;23.38;39.91;99131.91;5091165;28;20039;-66
2022/05/19 06:37:37;;;;;;;3.95;1.35;;;;;;;24.22;37.87;99104.50;5089004;28;20043;-67
2022/05/19 06:40:03;;;;;;;2.45;1.65;;;;;;;25.20;36.12;99110.97;5086178;28;20016;-68
2022/05/19 06:42:29;;;;;;;1.95;1.20;;;;;;;26.67;34.29;99131.59;5090398;28;20497;-68
2022/05/19 06:44:56;;;;;;;3.15;1.10;;;;;;;27.53;32.02;99103.44;5087306;28;20040;-70
2022/05/19 06:47:21;;;;;;;1.67;1.20;;;;;;;28.07;31.54;99140.75;5072731;28;20024;-68
2022/05/19 06:49:51;;;;;;;4.25;1.67;;;;;;;29.00;30.14;99148.63;5090544;28;20081;-68
2022/05/19 06:52:20;;;;;;;2.67;1.20;;;;;;;30.46;28.63;99145.19;5088931;28;20528;-68
2022/05/19 06:54:48;;;;;;;2.75;1.38;;;;;;;30.57;27.55;99124.16;5087447;28;20074;-68
2022/05/19 06:57:15;;;;;;;3.15;1.40;;;;;;;30.08;28.81;99141.00;5088326;28;20550;-70
2022/05/19 06:59:40;;;;;;;3.70;1.63;;;;;;;30.47;28.37;99130.06;5090338;28;20070;-68
2022/05/19 07:02:07;;;;;;;8.05;2.15;;;;;;;30.23;29.08;99136.09;5089142;28;20047;-65
2022/05/19 07:04:33;;;;;;;3.85;1.52;;;;;;;30.63;28.69;99138.78;5083946;28;20532;-65
2022/05/19 07:06:59;;;;;;;4.90;1.38;;;;;;;30.33;28.47;99119.88;5088781;28;20036;-68
2022/05/19 07:09:25;;;;;;;4.68;1.40;;;;;;;31.01;27.86;99144.53;5088087;28;20031;-68
2022/05/19 07:11:50;;;;;;;3.53;1.13;;;;;;;31.40;27.30;99117.53;5070846;28;20516;-71
2022/05/19 07:14:16;;;;;;;2.80;1.25;;;;;;;32.01;26.90;99137.66;5081166;28;20027;-68
2022/05/19 07:16:44;;;;;;;2.92;1.50;;;;;;;30.60;28.57;99119.88;5090236;28;20190;-70
2022/05/19 07:21:54;;;;;;;2.08;1.38;;;;;;;33.52;25.48;99134.94;5083311;28;20074;-71
2022/05/19 07:24:21;;;;;;;2.38;1.33;;;;;;;33.97;25.02;99148.09;5083222;28;20111;-64
2022/05/19 07:26:54;;;;;;;2.53;1.50;;;;;;;33.43;25.43;99137.81;5064044;28;20516;-71
2022/05/19 07:29:20;;;;;;;3.10;1.30;;;;;;;32.14;26.44;99104.97;5081943;28;20077;-72
2022/05/19 07:31:46;;;;;;;4.47;1.60;;;;;;;32.30;26.65;99128.44;5089892;28;20024;-72
2022/05/19 07:34:14;;;;;;;8.52;1.58;;;;;;;32.53;26.36;99126.13;5087142;28;20031;-69
2022/05/19 07:36:40;;;;;;;2.95;1.48;;;;;;;32.66;26.58;99131.81;5083419;28;20555;-71
2022/05/19 07:39:07;;;;;;;3.28;1.50;;;;;;;33.50;26.04;99142.88;5086843;28;20031;-68
2022/05/19 07:41:33;;;;;;;5.45;1.25;;;;;;;34.12;25.19;99133.38;5088857;28;20032;-66
2022/05/19 07:43:59;;;;;;;2.17;1.27;;;;;;;33.85;25.34;99128.41;5086777;28;20393;-71
2022/05/19 07:46:28;;;;;;;2.20;1.23;;;;;;;34.24;24.94;99138.97;5072318;28;20111;-68
2022/05/19 07:48:55;;;;;;;6.03;1.45;;;;;;;33.53;25.54;99128.13;5083889;28;20032;-70
2022/05/19 07:51:27;;;;;;;3.65;1.45;;;;;;;33.88;25.37;99131.38;5081343;28;20020;-68
2022/05/19 07:53:53;;;;;;;2.97;1.38;;;;;;;34.03;24.88;99136.28;5081613;28;20036;-74
2022/05/19 07:56:19;;;;;;;4.10;1.20;;;;;;;34.37;24.74;99122.06;5088309;28;20103;-69
2022/05/19 07:58:46;;;;;;;1.95;1.00;;;;;;;33.43;25.67;99126.59;5085850;28;20107;-70
2022/05/19 08:01:12;;;;;;;4.57;1.67;;;;;;;33.42;26.18;99099.72;5082077;28;20020;-71
2022/05/19 08:03:37;;;;;;;2.50;1.05;;;;;;;33.54;26.17;99118.59;5084829;28;20426;-68
2022/05/19 08:06:04;;;;;;;2.03;1.30;;;;;;;33.75;25.85;99116.50;5081478;28;20409;-70
2022/05/19 08:08:29;;;;;;;2.45;1.25;;;;;;;33.74;25.92;99100.00;5082758;28;20063;-72
2022/05/19 08:10:57;;;;;;;6.47;1.65;;;;;;;32.34;26.30;99106.16;5087204;28;20161;-70
2022/05/19 08:16:06;;;;;;;2.03;1.40;;;;;;;33.90;25.35;99131.81;5087419;28;20096;-65
2022/05/19 08:18:33;;;;;;;2.83;1.40;;;;;;;34.18;25.16;99131.94;5090167;28;20028;-69
2022/05/19 08:21:02;;;;;;;8.10;1.35;;;;;;;35.12;24.30;99111.06;5095828;28;20197;-69
2022/05/19 08:23:40;;;;;;;6.80;1.40;;;;;;;35.77;23.90;99132.47;5079292;28;20032;-71
2022/05/19 08:26:08;;;;;;;7.55;1.70;;;;;;;35.47;24.10;99129.25;5088523;28;20046;-69
2022/05/19 08:28:35;;;;;;;8.80;1.55;;;;;;;35.16;24.47;99122.41;5087411;28;20031;-70
2022/05/19 08:31:03;;;;;;;3.05;1.42;;;;;;;36.28;22.93;99132.50;5089640;28;20154;-72
2022/05/19 08:33:30;;;;;;;6.75;1.55;;;;;;;35.19;24.17;99126.50;5090253;28;20108;-71
2022/05/19 08:35:55;;;;;;;7.38;1.33;;;;;;;34.65;24.89;99117.34;5085579;28;20080;-75
2022/05/19 08:38:21;;;;;;;5.13;1.58;;;;;;;34.64;25.53;99132.59;5085401;28;20040;-64
2022/05/19 08:41:06;;;;;;;3.55;1.48;;;;;;;35.73;23.97;99121.13;5087152;28;20052;-63
2022/05/19 08:43:37;;;;;;;6.38;1.40;;;;;;;36.47;23.60;99130.91;5083511;28;20070;-64
2022/05/19 08:46:04;;;;;;;3.53;1.50;;;;;;;35.56;24.85;99136.34;5083447;28;20057;-65
2022/05/19 08:48:29;;;;;;;6.28;1.90;;;;;;;36.90;23.26;99126.22;5085257;28;20044;-65
2022/05/19 08:50:58;;;;;;;4.35;1.50;;;;;;;36.58;23.54;99127.19;5090581;28;20334;-64
2022/05/19 08:53:28;;;;;;;3.40;1.60;;;;;;;36.63;24.24;99121.25;5084603;28;20539;-65
2022/05/19 08:56:00;;;;;;;4.13;1.70;;;;;;;36.82;22.97;99122.44;5087207;28;20122;-66
2022/05/19 08:58:45;;;;;;;3.58;1.50;;;;;;;36.35;23.79;99118.59;5086847;28;20028;-65
2022/05/19 09:01:40;;;;;;;6.18;2.05;;;;;;;37.11;23.15;99117.38;5092206;22;20056;-68
2022/05/19 09:04:23;;;;;;;2.92;1.40;;;;;;;36.75;23.56;99106.16;5051956;28;20044;-69
2022/05/19 09:10:21;;;;;;;1.88;1.10;;;;;;;38.00;21.87;99109.69;5062378;28;20093;-69
2022/05/19 09:12:50;;;;;;;2.45;1.40;;;;;;;37.49;23.32;99122.09;5059956;28;20020;-69
2022/05/19 09:15:16;;;;;;;5.88;1.30;;;;;;;37.10;22.85;99115.75;5059561;28;20032;-69
2022/05/19 09:17:46;;;;;;;2.67;1.53;;;;;;;37.47;22.50;99118.88;5065163;28;20028;-69
2022/05/19 09:20:16;;;;;;;3.72;1.35;;;;;;;37.04;22.89;99118.06;5058448;28;20286;-69
2022/05/19 09:22:41;;;;;;;7.18;1.60;;;;;;;37.56;22.60;99113.00;5055601;28;20025;-69
2022/05/19 09:25:20;;;;;;;4.90;1.35;;;;;;;38.68;21.49;99111.47;5054191;28;20041;-69
2022/05/19 09:27:49;;;;;;;4.47;1.58;;;;;;;38.01;21.79;99111.31;5058194;28;20021;-72
2022/05/19 09:30:29;;;;;;;3.28;1.52;;;;;;;37.39;22.41;99105.78;5062735;28;20024;-70
2022/05/19 09:32:56;;;;;;;4.60;1.45;;;;;;;38.61;21.12;99102.91;5053585;28;20028;-70
2022/05/19 09:35:30;;;;;;;3.38;1.48;;;;;;;37.70;23.05;99102.75;5057435;28;20042;-70
2022/05/19 09:38:13;;;;;;;3.47;1.45;;;;;;;37.48;22.76;99106.38;5038369;28;20024;-70
2022/05/19 09:40:46;;;;;;;6.25;1.73;;;;;;;37.41;23.15;99104.22;5059419;28;20034;-70
2022/05/19 09:43:19;;;;;;;8.40;1.23;;;;;;;37.34;22.70;99104.13;5065614;28;20040;-70
2022/05/19 09:45:51;;;;;;;5.70;1.33;;;;;;;38.92;21.57;99107.34;5061359;28;20058;-70
2022/05/19 09:48:24;;;;;;;3.60;1.27;;;;;;;39.53;20.60;99104.34;5060797;28;20055;-70
2022/05/19 09:50:53;;;;;;;3.72;1.48;;;;;;;40.52;19.58;99097.78;5065129;28;20052;-70
2022/05/19 09:53:25;;;;;;;6.65;1.58;;;;;;;40.87;19.31;99097.13;5071613;28;20025;-71
2022/05/19 09:56:02;;;;;;;4.18;1.35;;;;;;;39.61;20.75;99100.38;5060350;28;20515;-71
2022/05/19 09:58:32;;;;;;;3.97;1.50;;;;;;;38.38;21.37;99111.44;5055390;28;20028;-73
2022/05/19 10:01:02;;;;;;;2.65;1.10;;;;;;;40.00;20.22;99111.22;5069461;28;20036;-71
2022/05/19 10:03:50;;;;;;;3.22;1.40;;;;;;;38.45;22.38;99114.41;5058054;28;20024;-73
2022/05/19 10:06:23;;;;;;;;;;;;;;;38.64;21.90;99121.94;5065862;28;20116;-73
2022/05/19 10:08:59;;;;;;;8.02;1.80;;;;;;;39.15;22.21;99112.88;5059367;28;20463;-73
2022/05/19 10:11:30;;;;;;;4.15;1.38;;;;;;;39.65;21.43;99109.72;5060828;28;20041;-73
2022/05/19 10:14:07;;;;;;;3.40;1.88;;;;;;;39.34;21.26;99114.69;5060899;28;20486;-73
2022/05/19 10:16:50;;;;;;;6.68;1.50;;;;;;;39.65;21.42;99101.22;5066287;28;20448;-73
2022/05/19 10:19:37;;;;;;;2.42;1.20;;;;;;;38.57;22.03;99110.53;5064620;28;20365;-74
2022/05/19 10:22:32;;;;;;;1.63;1.20;;;;;;;39.93;21.79;99099.84;5062431;28;20389;-73
2022/05/19 10:25:22;;;;;;;3.58;1.33;;;;;;;39.03;23.12;99098.97;5061390;28;20076;-73
2022/05/19 10:31:05;;;;;;;5.18;1.25;;;;;;;40.26;21.11;99094.00;5056131;28;20556;-70
2022/05/19 10:33:48;;;;;;;3.20;1.42;;;;;;;39.90;20.38;99090.09;5060967;28;20028;-70
2022/05/19 10:36:19;;;;;;;3.70;1.50;;;;;;;39.16;22.75;99082.53;5059893;28;20389;-70
2022/05/19 10:38:52;;;;;;;4.60;1.60;;;;;;;39.23;22.11;99068.47;5047966;28;20096;-70
2022/05/19 10:41:36;;;;;;;4.93;1.42;;;;;;;37.80;23.06;99075.88;5060002;28;20450;-70
2022/05/19 10:44:20;;;;;;;4.43;1.48;;;;;;;37.35;23.77;99071.06;5057592;28;20037;-71
2022/05/19 10:47:02;;;;;;;3.53;1.40;;;;;;;39.66;21.47;99066.81;5063974;28;20468;-70
2022/05/19 10:49:57;;;;;;;2.65;1.48;;;;;;;38.87;22.54;99061.59;5063848;28;20028;-72
2022/05/19 10:52:37;;;;;;;5.65;1.40;;;;;;;39.05;22.42;99056.16;5067114;28;20032;-71
2022/05/19 10:55:17;;;;;;;3.42;1.50;;;;;;;39.82;22.26;99060.91;5057941;28;20151;-71
2022/05/19 10:57:59;;;;;;;2.45;1.48;;;;;;;40.85;20.83;99059.00;5056656;28;20074;-71
2022/05/19 11:00:43;;;;;;;2.80;1.48;;;;;;;41.00;20.08;99054.19;5061142;28;20032;-71
2022/05/19 11:03:11;;;;;;;3.58;1.77;;;;;;;40.72;20.67;99050.91;5056484;28;20039;-71
2022/05/19 11:05:55;;;;;;;2.90;1.40;;;;;;;40.50;21.17;99049.97;5060865;28;20567;-71
2022/05/19 11:08:46;;;;;;;4.97;1.85;;;;;;;39.94;21.49;99053.31;5070169;28;20035;-71
2022/05/19 11:11:47;;;;;;;2.13;1.40;;;;;;;40.03;21.07;99057.41;5071428;28;20032;-71
2022/05/19 11:14:39;;;;;;;6.45;1.55;;;;;;;40.49;20.78;99048.34;5046280;28;20040;-71
2022/05/19 11:17:13;;;;;;;1.98;1.25;;;;;;;40.95;20.57;99044.88;5068988;28;20127;-73
2022/05/19 11:19:54;;;;;;;2.75;1.55;;;;;;;40.93;20.72;99044.47;5057700;28;20032;-71
2022/05/19 11:22:24;;;;;;;2.63;1.42;;;;;;;40.17;21.54;99048.19;5064935;28;20119;-71
2022/05/19 11:27:46;;;;;;;2.88;1.40;;;;;;;39.18;23.28;99052.66;5062789;28;20038;-70
2022/05/19 11:30:18;;;;;;;4.00;1.40;;;;;;;40.35;21.41;99038.97;5066346;28;20032;-70
2022/05/19 11:32:50;;;;;;;3.08;1.30;;;;;;;40.20;21.83;99040.91;5061700;28;20482;-71
2022/05/19 11:35:21;;;;;;;3.65;1.65;;;;;;;40.16;22.22;99046.53;5061861;28;20020;-71
2022/05/19 11:37:53;;;;;;;4.85;1.40;;;;;;;38.50;23.49;99042.59;5074692;28;20219;-73
2022/05/19 11:40:25;;;;;;;5.15;1.33;;;;;;;39.52;22.48;99040.44;5087749;28;20044;-68
2022/05/19 11:43:03;;;;;;;2.75;1.50;;;;;;;39.80;22.42;99040.69;5078873;28;20032;-69
2022/05/19 11:45:47;;;;;;;;;;;;;;;41.23;20.65;99033.97;5076951;28;20054;-71
2022/05/19 11:57:37;;;;;;;2.83;1.45;;;;;;;39.29;22.28;99029.28;5065856;28;20780;-69
2022/05/19 12:00:05;;;;;;;3.75;1.45;;;;;;;39.50;22.51;99037.19;5061683;28;20029;-68
2022/05/19 12:02:38;;;;;;;2.97;1.30;;;;;;;38.95;22.96;99026.53;5051851;28;20021;-68
2022/05/19 12:05:18;;;;;;;2.92;1.50;;;;;;;39.48;22.79;99019.75;5064523;28;20058;-69
2022/05/19 12:07:53;;;;;;;3.20;1.70;;;;;;;40.54;22.02;99004.63;5070361;28;20034;-69
2022/05/19 12:10:24;;;;;;;6.22;1.60;;;;;;;41.49;20.63;99019.38;5070215;28;20107;-70
2022/05/19 12:12:58;;;;;;;3.25;1.63;;;;;;;41.74;21.03;99012.88;5057646;28;20060;-70